createdAt,value
2023-08-12T00:00:12.674Z,18.49
2023-08-12T00:02:45.163Z,18.55
2023-08-12T00:05:14.470Z,18.61
2023-08-12T00:07:43.388Z,18.56
2023-08-12T00:10:14.088Z,18.65
2023-08-12T00:12:42.325Z,18.70
2023-08-12T00:15:12.510Z,18.69
2023-08-12T00:17:43.189Z,18.78
2023-08-12T00:20:13.561Z,18.84
2023-08-12T00:22:42.766Z,18.67
2023-08-12T00:25:10.984Z,18.68
2023-08-12T00:27:40.243Z,18.85
2023-08-12T00:30:09.174Z,19.09
2023-08-12T00:32:40.003Z,19.32
2023-08-12T00:35:09.093Z,19.65
2023-08-12T00:37:37.098Z,20.04
2023-08-12T00:40:07.931Z,20.59
2023-08-12T00:42:35.922Z,20.14
2023-08-12T00:45:05.607Z,19.87
2023-08-12T00:47:33.974Z,19.77
2023-08-12T00:50:03.463Z,19.77
2023-08-12T00:52:32.018Z,19.58
2023-08-12T00:55:00.100Z,19.60
2023-08-12T00:57:29.148Z,19.59
2023-08-12T00:59:58.701Z,19.57
2023-08-12T01:02:26.899Z,19.70
2023-08-12T01:04:56.130Z,19.73
2023-08-12T01:07:25.955Z,19.87
2023-08-12T01:09:54.345Z,19.83
2023-08-12T01:12:28.753Z,19.91
2023-08-12T01:15:11.951Z,19.93
2023-08-12T01:17:43.630Z,19.92
2023-08-12T01:20:14.115Z,19.95
2023-08-12T01:22:47.848Z,19.89
2023-08-12T01:25:18.060Z,19.83
2023-08-12T01:27:47.310Z,19.75
2023-08-12T01:30:16.452Z,19.79
2023-08-12T01:32:55.758Z,19.75
2023-08-12T01:35:28.304Z,19.67
2023-08-12T01:38:00.414Z,19.60
2023-08-12T01:40:31.480Z,19.40
2023-08-12T01:43:02.050Z,19.22
2023-08-12T01:45:33.096Z,19.17
2023-08-12T01:48:01.730Z,19.13
2023-08-12T01:50:29.944Z,19.08
2023-08-12T01:53:00.030Z,18.99
2023-08-12T01:55:29.404Z,18.93
2023-08-12T01:57:58.494Z,18.80
2023-08-12T02:00:26.988Z,18.78
2023-08-12T02:02:55.203Z,18.71
2023-08-12T02:05:23.663Z,18.63
2023-08-12T02:07:52.200Z,18.60
2023-08-12T02:10:21.193Z,18.48
2023-08-12T02:12:50.552Z,18.38
2023-08-12T02:15:19.319Z,18.32
2023-08-12T02:17:47.869Z,18.44
2023-08-12T02:20:16.052Z,18.37
2023-08-12T02:22:44.576Z,18.39
2023-08-12T02:25:13.059Z,18.36
2023-08-12T02:27:41.187Z,18.28
2023-08-12T02:30:13.634Z,18.38
2023-08-12T02:32:44.540Z,18.36
2023-08-12T02:35:13.550Z,18.38
2023-08-12T02:37:41.501Z,18.36
2023-08-12T02:40:11.712Z,18.35
2023-08-12T02:42:40.600Z,18.30
2023-08-12T02:45:08.976Z,18.36
2023-08-12T02:47:38.888Z,18.37
2023-08-12T02:50:07.598Z,18.39
2023-08-12T02:52:35.799Z,18.44
2023-08-12T02:55:05.040Z,18.38
2023-08-12T02:57:33.090Z,18.38
2023-08-12T03:00:01.797Z,18.37
2023-08-12T03:02:29.891Z,18.38
2023-08-12T03:04:59.323Z,18.34
2023-08-12T03:07:28.176Z,18.30
2023-08-12T03:09:56.251Z,18.34
2023-08-12T03:12:24.402Z,18.35
2023-08-12T03:14:53.295Z,18.28
2023-08-12T03:17:21.414Z,18.24
2023-08-12T03:19:50.798Z,18.22
2023-08-12T03:22:20.290Z,18.23
2023-08-12T03:24:51.904Z,18.21
2023-08-12T03:27:19.969Z,18.23
2023-08-12T03:29:48.886Z,18.18
2023-08-12T03:32:18.258Z,18.16
2023-08-12T03:34:46.327Z,18.12
2023-08-12T03:37:14.639Z,18.08
2023-08-12T03:39:45.877Z,18.05
2023-08-12T03:42:15.740Z,18.04
2023-08-12T03:44:44.746Z,18.04
2023-08-12T03:47:13.392Z,18.03
2023-08-12T03:49:42.970Z,18.01
2023-08-12T03:52:11.526Z,18.03
2023-08-12T03:54:39.567Z,18.10
2023-08-12T03:57:09.748Z,18.07
2023-08-12T03:59:39.122Z,17.99
2023-08-12T04:02:08.674Z,17.94
2023-08-12T04:04:36.665Z,17.93
2023-08-12T04:07:05.111Z,17.91
2023-08-12T04:09:33.161Z,17.98
2023-08-12T04:12:01.182Z,17.97
2023-08-12T04:14:31.688Z,17.94
2023-08-12T04:16:59.782Z,17.93
2023-08-12T04:19:27.787Z,17.90
2023-08-12T04:21:56.779Z,17.88
2023-08-12T04:24:24.851Z,17.84
2023-08-12T04:26:53.307Z,17.82
2023-08-12T04:29:21.400Z,17.80
2023-08-12T04:31:51.169Z,17.80
2023-08-12T04:34:20.117Z,17.80
2023-08-12T04:36:48.093Z,17.83
2023-08-12T04:39:17.070Z,17.83
2023-08-12T04:41:47.926Z,17.82
2023-08-12T04:44:17.580Z,17.84
2023-08-12T04:46:45.786Z,17.90
2023-08-12T04:49:15.200Z,17.90
2023-08-12T04:51:44.926Z,17.94
2023-08-12T04:54:13.922Z,18.04
2023-08-12T04:56:44.644Z,18.05
2023-08-12T04:59:12.976Z,18.08
2023-08-12T05:01:54.476Z,18.10
2023-08-12T05:04:32.596Z,18.01
2023-08-12T05:07:00.605Z,17.99
2023-08-12T05:09:29.175Z,17.97
2023-08-12T05:11:57.166Z,17.97
2023-08-12T05:14:25.561Z,17.98
2023-08-12T05:16:54.081Z,17.99
2023-08-12T05:19:22.411Z,18.00
2023-08-12T05:21:52.685Z,18.02
2023-08-12T05:24:21.598Z,18.05
2023-08-12T05:26:49.633Z,18.03
2023-08-12T05:29:18.498Z,18.13
2023-08-12T05:31:46.589Z,18.13
2023-08-12T05:34:14.574Z,18.19
2023-08-12T05:36:42.732Z,18.17
2023-08-12T05:39:12.676Z,18.18
2023-08-12T05:41:41.085Z,18.18
2023-08-12T05:44:09.282Z,18.29
2023-08-12T05:46:37.767Z,18.43
2023-08-12T05:49:06.252Z,18.56
2023-08-12T05:51:34.226Z,18.50
2023-08-12T05:54:03.230Z,18.54
2023-08-12T05:56:32.694Z,18.68
2023-08-12T05:59:01.587Z,18.68
2023-08-12T06:01:29.566Z,18.69
2023-08-12T06:03:58.532Z,18.69
2023-08-12T06:06:26.616Z,18.71
2023-08-12T06:08:54.570Z,18.89
2023-08-12T06:11:23.457Z,18.94
2023-08-12T06:13:52.810Z,18.94
2023-08-12T06:16:21.727Z,18.93
2023-08-12T06:18:49.724Z,19.08
2023-08-12T06:21:18.783Z,19.06
2023-08-12T06:23:47.166Z,19.00
2023-08-12T06:26:15.568Z,19.02
2023-08-12T06:28:43.629Z,19.09
2023-08-12T06:31:13.054Z,19.16
2023-08-12T06:33:41.671Z,19.39
2023-08-12T06:36:09.653Z,19.54
2023-08-12T06:38:37.682Z,19.77
2023-08-12T06:41:05.741Z,20.04
2023-08-12T06:43:33.744Z,20.14
2023-08-12T06:46:01.798Z,20.42
2023-08-12T06:48:31.431Z,19.98
2023-08-12T06:51:00.364Z,19.97
2023-08-12T06:53:28.750Z,19.89
2023-08-12T06:55:57.609Z,19.96
2023-08-12T06:58:25.536Z,20.07
2023-08-12T07:00:54.494Z,20.43
2023-08-12T07:03:23.035Z,20.23
2023-08-12T07:05:52.506Z,20.17
2023-08-12T07:08:20.561Z,20.36
2023-08-12T07:10:49.065Z,20.42
2023-08-12T07:13:17.514Z,20.35
2023-08-12T07:15:45.978Z,20.23
2023-08-12T07:18:14.050Z,19.94
2023-08-12T07:20:42.503Z,19.98
2023-08-12T07:23:11.883Z,19.98
2023-08-12T07:25:40.123Z,20.03
2023-08-12T07:28:08.261Z,20.14
2023-08-12T07:30:37.347Z,20.22
2023-08-12T07:33:06.685Z,20.25
2023-08-12T07:35:34.908Z,20.55
2023-08-12T07:38:03.055Z,20.55
2023-08-12T07:40:32.755Z,20.56
2023-08-12T07:43:00.522Z,20.65
2023-08-12T07:45:29.032Z,20.71
2023-08-12T07:47:57.229Z,20.68
2023-08-12T07:50:25.853Z,20.68
2023-08-12T07:52:54.565Z,20.89
2023-08-12T07:55:24.915Z,21.05
2023-08-12T07:57:56.186Z,21.13
2023-08-12T08:00:24.418Z,21.16
2023-08-12T08:02:52.413Z,21.24
2023-08-12T08:05:21.394Z,20.88
2023-08-12T08:07:49.422Z,20.61
2023-08-12T08:10:17.706Z,20.41
2023-08-12T08:12:46.114Z,20.41
2023-08-12T08:15:15.488Z,20.39
2023-08-12T08:17:43.736Z,20.36
2023-08-12T08:20:12.360Z,20.11
2023-08-12T08:22:40.734Z,20.39
2023-08-12T08:25:10.012Z,20.37
2023-08-12T08:27:38.469Z,20.36
2023-08-12T08:30:07.371Z,20.15
2023-08-12T08:32:36.740Z,20.09
2023-08-12T08:35:06.057Z,20.10
2023-08-12T08:37:34.138Z,20.10
2023-08-12T08:40:02.601Z,20.21
2023-08-12T08:42:31.104Z,20.15
2023-08-12T08:45:04.739Z,20.12
2023-08-12T08:47:33.612Z,20.13
2023-08-12T08:50:03.618Z,20.11
2023-08-12T08:52:32.522Z,19.99
2023-08-12T08:55:04.196Z,20.02
2023-08-12T08:57:43.664Z,20.04
2023-08-12T09:00:18.195Z,19.98
2023-08-12T09:02:49.401Z,20.17
2023-08-12T09:05:19.797Z,20.33
2023-08-12T09:07:49.541Z,20.39
2023-08-12T09:10:19.245Z,20.75
2023-08-12T09:12:48.666Z,20.88
2023-08-12T09:15:20.039Z,20.68
2023-08-12T09:17:48.139Z,20.96
2023-08-12T09:20:17.151Z,20.97
2023-08-12T09:22:47.027Z,21.29
2023-08-12T09:25:15.052Z,21.60
2023-08-12T09:27:42.991Z,21.77
2023-08-12T09:30:14.818Z,21.77
2023-08-12T09:32:44.400Z,21.74
2023-08-12T09:35:19.400Z,21.73
2023-08-12T09:37:48.897Z,21.93
2023-08-12T09:40:17.220Z,21.86
2023-08-12T09:42:49.840Z,21.87
2023-08-12T09:45:21.603Z,22.10
2023-08-12T09:47:50.487Z,22.47
2023-08-12T09:50:18.683Z,22.58
2023-08-12T09:52:49.010Z,23.11
2023-08-12T09:55:19.340Z,23.48
2023-08-12T09:57:50.156Z,23.25
2023-08-12T10:00:20.681Z,23.20
2023-08-12T10:02:49.891Z,23.12
2023-08-12T10:05:24.040Z,23.44
2023-08-12T10:07:55.837Z,23.41
2023-08-12T10:10:25.225Z,23.49
2023-08-12T10:12:54.043Z,23.59
2023-08-12T10:15:23.744Z,23.94
2023-08-12T10:17:54.169Z,23.83
2023-08-12T10:20:24.164Z,23.63
2023-08-12T10:22:54.347Z,24.17
2023-08-12T10:25:24.126Z,24.03
2023-08-12T10:27:54.126Z,24.20
2023-08-12T10:30:23.164Z,24.56
2023-08-12T10:32:51.955Z,23.79
2023-08-12T10:35:20.540Z,23.47
2023-08-12T10:37:52.003Z,23.42
2023-08-12T10:40:25.925Z,23.57
2023-08-12T10:42:54.270Z,23.20
2023-08-12T10:45:22.350Z,22.87
2023-08-12T10:47:54.594Z,22.60
2023-08-12T10:50:27.773Z,22.61
2023-08-12T10:52:56.892Z,22.50
2023-08-12T10:55:29.892Z,22.48
2023-08-12T10:58:00.613Z,22.50
2023-08-12T11:00:31.272Z,22.95
2023-08-12T11:03:00.129Z,23.14
2023-08-12T11:05:38.729Z,23.85
2023-08-12T11:08:08.521Z,24.10
2023-08-12T11:10:37.940Z,24.01
2023-08-12T11:13:06.447Z,24.41
2023-08-12T11:15:38.434Z,24.21
2023-08-12T11:18:07.732Z,24.26
2023-08-12T11:20:36.941Z,24.95
2023-08-12T11:23:06.796Z,25.21
2023-08-12T11:25:35.020Z,25.07
2023-08-12T11:28:06.443Z,24.54
2023-08-12T11:30:34.695Z,23.50
2023-08-12T11:33:04.286Z,23.28
2023-08-12T11:35:32.892Z,23.46
2023-08-12T11:38:01.475Z,23.34
2023-08-12T11:40:30.465Z,23.38
2023-08-12T11:42:59.219Z,23.44
2023-08-12T11:45:29.551Z,23.54
2023-08-12T11:47:59.024Z,23.12
2023-08-12T11:50:28.744Z,23.15
2023-08-12T11:52:59.030Z,23.27
2023-08-12T11:55:27.761Z,23.47
2023-08-12T11:57:56.300Z,23.55
2023-08-12T12:00:29.440Z,23.69
2023-08-12T12:02:58.651Z,23.65
2023-08-12T12:05:28.968Z,23.62
2023-08-12T12:07:57.420Z,24.28
2023-08-12T12:10:34.583Z,24.10
2023-08-12T12:13:05.966Z,24.23
2023-08-12T12:15:41.502Z,23.59
2023-08-12T12:18:12.672Z,23.31
2023-08-12T12:20:45.689Z,23.31
2023-08-12T12:23:13.793Z,23.42
2023-08-12T12:25:43.373Z,23.99
2023-08-12T12:28:11.792Z,23.97
2023-08-12T12:30:41.190Z,23.72
2023-08-12T12:33:10.181Z,23.54
2023-08-12T12:35:51.650Z,23.23
2023-08-12T12:38:25.273Z,23.07
2023-08-12T12:40:53.254Z,23.23
2023-08-12T12:43:21.326Z,23.07
2023-08-12T12:45:51.062Z,23.14
2023-08-12T12:48:19.140Z,23.52
2023-08-12T12:50:47.816Z,23.87
2023-08-12T12:53:15.827Z,23.54
2023-08-12T12:55:45.483Z,23.28
2023-08-12T12:58:14.483Z,23.19
2023-08-12T13:00:42.456Z,23.08
2023-08-12T13:03:13.457Z,22.69
2023-08-12T13:05:41.707Z,22.44
2023-08-12T13:08:09.993Z,22.35
2023-08-12T13:10:38.472Z,22.22
2023-08-12T13:13:06.605Z,22.11
2023-08-12T13:15:35.643Z,21.97
2023-08-12T13:18:04.138Z,21.86
2023-08-12T13:20:34.141Z,21.72
2023-08-12T13:23:02.712Z,21.68
2023-08-12T13:25:32.552Z,21.57
2023-08-12T13:28:01.714Z,21.17
2023-08-12T13:30:30.415Z,20.79
2023-08-12T13:33:01.703Z,20.60
2023-08-12T13:35:30.199Z,20.68
2023-08-12T13:38:00.080Z,21.02
2023-08-12T13:40:28.295Z,22.25
2023-08-12T13:42:58.159Z,23.86
2023-08-12T13:45:26.366Z,24.42
2023-08-12T13:47:54.530Z,24.19
2023-08-12T13:50:22.719Z,24.52
2023-08-12T13:52:52.055Z,24.66
2023-08-12T13:55:21.473Z,24.42
2023-08-12T13:57:49.514Z,24.78
2023-08-12T14:00:18.585Z,25.54
2023-08-12T14:02:48.665Z,24.52
2023-08-12T14:05:16.883Z,24.58
2023-08-12T14:07:45.580Z,26.12
2023-08-12T14:10:13.658Z,26.15
2023-08-12T14:12:43.609Z,26.55
2023-08-12T14:15:12.266Z,26.46
2023-08-12T14:17:40.970Z,26.04
2023-08-12T14:20:11.752Z,24.29
2023-08-12T14:22:39.771Z,23.58
2023-08-12T14:25:09.132Z,23.44
2023-08-12T14:27:37.709Z,22.96
2023-08-12T14:30:08.451Z,22.94
2023-08-12T14:32:36.734Z,22.90
2023-08-12T14:35:06.666Z,22.43
2023-08-12T14:37:34.773Z,22.08
2023-08-12T14:40:05.667Z,21.76
2023-08-12T14:42:33.754Z,21.73
2023-08-12T14:45:01.771Z,21.79
2023-08-12T14:47:31.788Z,21.77
2023-08-12T14:49:59.993Z,21.51
2023-08-12T14:52:28.424Z,20.95
2023-08-12T14:54:56.819Z,20.86
2023-08-12T14:57:24.825Z,21.92
2023-08-12T14:59:52.845Z,23.54
2023-08-12T15:02:22.776Z,23.62
2023-08-12T15:04:53.166Z,22.40
2023-08-12T15:07:23.044Z,22.02
2023-08-12T15:09:53.084Z,21.64
2023-08-12T15:12:21.383Z,21.58
2023-08-12T15:14:49.889Z,22.43
2023-08-12T15:17:18.601Z,23.05
2023-08-12T15:19:46.604Z,22.99
2023-08-12T15:22:16.094Z,24.12
2023-08-12T15:24:43.995Z,25.27
2023-08-12T15:27:12.311Z,23.07
2023-08-12T15:29:40.671Z,22.26
2023-08-12T15:32:08.769Z,21.72
2023-08-12T15:34:36.918Z,21.38
2023-08-12T15:37:07.507Z,21.18
2023-08-12T15:39:37.796Z,21.09
2023-08-12T15:42:06.512Z,20.96
2023-08-12T15:44:34.999Z,20.73
2023-08-12T15:47:02.998Z,20.41
2023-08-12T15:49:35.173Z,20.43
2023-08-12T15:52:03.600Z,20.39
2023-08-12T15:54:31.654Z,20.25
2023-08-12T15:57:02.233Z,20.17
2023-08-12T15:59:30.347Z,20.11
2023-08-12T16:01:58.711Z,20.05
2023-08-12T16:04:27.999Z,19.90
2023-08-12T16:06:56.059Z,19.82
2023-08-12T16:09:24.266Z,19.46
2023-08-12T16:11:52.692Z,19.36
2023-08-12T16:14:22.217Z,19.67
2023-08-12T16:16:50.737Z,19.76
2023-08-12T16:19:18.955Z,19.86
2023-08-12T16:21:46.982Z,19.61
2023-08-12T16:24:15.493Z,19.47
2023-08-12T16:26:43.906Z,19.39
2023-08-12T16:29:12.339Z,19.50
2023-08-12T16:31:42.249Z,19.66
2023-08-12T16:34:10.448Z,19.98
2023-08-12T16:36:38.889Z,20.72
2023-08-12T16:39:08.687Z,21.28
2023-08-12T16:41:38.425Z,20.86
2023-08-12T16:44:06.722Z,22.76
2023-08-12T16:46:34.693Z,25.04
2023-08-12T16:49:05.231Z,25.55
2023-08-12T16:51:34.232Z,25.28
2023-08-12T16:54:02.182Z,24.63
2023-08-12T16:56:31.851Z,25.52
2023-08-12T16:59:01.286Z,24.42
2023-08-12T17:01:29.400Z,22.97
2023-08-12T17:03:57.948Z,22.76
2023-08-12T17:06:27.319Z,22.24
2023-08-12T17:08:55.809Z,21.52
2023-08-12T17:11:24.353Z,21.43
2023-08-12T17:13:52.485Z,20.77
2023-08-12T17:16:20.549Z,20.83
2023-08-12T17:18:49.443Z,20.45
2023-08-12T17:21:17.478Z,20.22
2023-08-12T17:23:47.325Z,20.16
2023-08-12T17:26:15.801Z,20.18
2023-08-12T17:28:43.760Z,20.17
2023-08-12T17:31:13.004Z,20.21
2023-08-12T17:33:41.683Z,20.08
2023-08-12T17:36:09.685Z,20.05
2023-08-12T17:38:38.144Z,20.15
2023-08-12T17:41:07.674Z,20.28
2023-08-12T17:43:35.462Z,20.20
2023-08-12T17:46:04.046Z,20.31
2023-08-12T17:48:33.012Z,20.14
2023-08-12T17:51:01.053Z,19.93
2023-08-12T17:53:29.564Z,19.77
2023-08-12T17:55:57.608Z,19.75
2023-08-12T17:58:27.581Z,19.71
2023-08-12T18:00:56.556Z,19.75
2023-08-12T18:03:24.675Z,19.74
2023-08-12T18:05:53.767Z,19.67
2023-08-12T18:08:21.959Z,19.91
2023-08-12T18:10:49.969Z,19.83
2023-08-12T18:13:21.478Z,20.04
2023-08-12T18:15:51.226Z,19.83
2023-08-12T18:18:20.245Z,19.93
2023-08-12T18:20:48.755Z,20.14
2023-08-12T18:23:17.686Z,20.08
2023-08-12T18:25:45.969Z,20.00
2023-08-12T18:28:14.051Z,19.82
2023-08-12T18:30:42.999Z,19.74
2023-08-12T18:33:14.974Z,19.82
2023-08-12T18:35:43.853Z,19.88
2023-08-12T18:38:11.931Z,19.91
2023-08-12T18:40:39.964Z,19.84
2023-08-12T18:43:08.894Z,19.79
2023-08-12T18:45:37.613Z,19.70
2023-08-12T18:48:07.742Z,19.50
2023-08-12T18:50:37.125Z,19.35
2023-08-12T18:53:05.927Z,19.21
2023-08-12T18:55:34.865Z,19.16
2023-08-12T18:58:03.097Z,19.06
2023-08-12T19:00:31.439Z,18.92
2023-08-12T19:03:00.041Z,18.85
2023-08-12T19:05:28.688Z,18.83
2023-08-12T19:07:58.540Z,18.73
2023-08-12T19:10:26.689Z,18.61
2023-08-12T19:12:55.592Z,18.51
2023-08-12T19:15:24.639Z,18.40
2023-08-12T19:17:52.763Z,18.36
2023-08-12T19:20:21.099Z,18.24
2023-08-12T19:22:50.498Z,18.14
2023-08-12T19:25:20.064Z,17.99
2023-08-12T19:27:48.107Z,18.01
2023-08-12T19:30:16.247Z,17.93
2023-08-12T19:32:52.737Z,17.93
2023-08-12T19:35:22.305Z,17.75
2023-08-12T19:37:53.477Z,17.76
2023-08-12T19:40:23.068Z,17.59
2023-08-12T19:42:51.094Z,17.57
2023-08-12T19:45:20.647Z,17.57
2023-08-12T19:47:49.153Z,17.45
2023-08-12T19:50:17.657Z,17.41
2023-08-12T19:52:45.675Z,17.47
2023-08-12T19:55:14.217Z,17.37
2023-08-12T19:59:26.545Z,17.40
2023-08-12T20:01:54.631Z,17.38
2023-08-12T20:04:24.570Z,17.33
2023-08-12T20:06:53.098Z,17.24
2023-08-12T20:09:21.147Z,17.16
2023-08-12T20:11:49.937Z,17.11
2023-08-12T20:14:17.972Z,17.05
2023-08-12T20:16:47.803Z,16.99
2023-08-12T20:19:16.431Z,16.94
2023-08-12T20:21:44.621Z,16.87
2023-08-12T20:24:12.830Z,16.85
2023-08-12T20:26:40.804Z,16.72
2023-08-12T20:29:09.867Z,16.71
2023-08-12T20:31:37.870Z,16.71
2023-08-12T20:34:08.594Z,16.58
2023-08-12T20:36:37.521Z,16.54
2023-08-12T20:39:05.871Z,16.44
2023-08-12T20:41:35.497Z,16.49
2023-08-12T20:44:03.732Z,16.46
2023-08-12T20:46:31.902Z,16.42
2023-08-12T20:49:00.565Z,16.40
2023-08-12T20:51:29.945Z,16.37
2023-08-12T20:53:58.578Z,16.25
2023-08-12T20:56:26.707Z,16.30
2023-08-12T20:58:54.645Z,16.22
2023-08-12T21:01:23.859Z,16.19
2023-08-12T21:03:52.079Z,16.28
2023-08-12T21:06:20.143Z,16.19
2023-08-12T21:08:50.604Z,16.14
2023-08-12T21:11:19.157Z,16.24
2023-08-12T21:13:48.082Z,16.21
2023-08-12T21:16:16.135Z,16.25
2023-08-12T21:18:45.124Z,16.13
2023-08-12T21:21:13.174Z,16.03
2023-08-12T21:23:41.148Z,16.08
2023-08-12T21:26:11.228Z,16.08
2023-08-12T21:28:39.467Z,16.09
2023-08-12T21:31:07.495Z,16.04
2023-08-12T21:33:36.442Z,16.09
2023-08-12T21:36:04.839Z,16.04
2023-08-12T21:38:32.866Z,16.08
2023-08-12T21:41:02.335Z,16.07
2023-08-12T21:43:57.805Z,16.01
2023-08-12T21:46:32.702Z,15.97
2023-08-12T21:49:01.857Z,15.99
2023-08-12T21:51:30.364Z,15.99
2023-08-12T21:53:59.414Z,15.92
2023-08-12T21:56:27.553Z,15.88
2023-08-12T21:58:57.717Z,15.85
2023-08-12T22:01:26.042Z,15.88
2023-08-12T22:03:54.382Z,15.88
2023-08-12T22:06:22.468Z,15.82
2023-08-12T22:08:51.384Z,15.80
2023-08-12T22:11:19.429Z,15.65
2023-08-12T22:13:48.379Z,15.63
2023-08-12T22:16:17.786Z,15.60
2023-08-12T22:18:47.005Z,15.58
2023-08-12T22:21:15.116Z,15.50
2023-08-12T22:23:43.095Z,15.45
2023-08-12T22:26:12.557Z,15.44
2023-08-12T22:28:40.842Z,15.40
2023-08-12T22:31:09.076Z,15.44
2023-08-12T22:33:39.574Z,15.45
2023-08-12T22:36:11.711Z,15.71
2023-08-12T22:38:41.832Z,15.71
2023-08-12T22:41:10.063Z,15.76
2023-08-12T22:43:38.703Z,15.75
2023-08-12T22:46:07.772Z,15.66
2023-08-12T22:48:35.814Z,15.71
2023-08-12T22:51:05.829Z,15.66
2023-08-12T22:53:34.200Z,15.52
2023-08-12T22:56:02.724Z,15.45
2023-08-12T22:58:30.840Z,15.41
2023-08-12T23:00:59.302Z,15.46
2023-08-12T23:03:27.920Z,15.53
2023-08-12T23:05:55.948Z,15.49
2023-08-12T23:08:25.448Z,15.45
2023-08-12T23:10:55.408Z,15.47
2023-08-12T23:13:23.929Z,15.38
2023-08-12T23:15:52.774Z,15.27
2023-08-12T23:18:21.284Z,15.12
2023-08-12T23:20:49.807Z,15.16
2023-08-12T23:23:17.940Z,15.31
2023-08-12T23:25:47.808Z,15.29
2023-08-12T23:28:15.803Z,15.46
2023-08-12T23:30:44.303Z,15.52
2023-08-12T23:33:12.755Z,15.72
2023-08-12T23:35:41.587Z,15.79
2023-08-12T23:38:10.727Z,15.74
2023-08-12T23:40:38.758Z,15.71
2023-08-12T23:43:09.087Z,15.66
2023-08-12T23:45:38.109Z,15.76
2023-08-12T23:48:06.843Z,15.86
2023-08-12T23:50:35.509Z,15.74
2023-08-12T23:53:04.630Z,15.70
2023-08-12T23:55:34.727Z,15.76
2023-08-12T23:58:02.912Z,15.71
